Fort Nelson, Fort Nelson Airport (CYYE)

NameFort Nelson Airport
CityFort Nelson
CountryCanada
ICAOCYYE
IATAYYE
Altitude382 m
CoordinatesGoogle Map
Live Air TrafficLiveATC.net
METARCYYE 172000Z 09003KT 350V110 30SM SCT180 BKN210 08/02 A2975 RMK AC3CI2 SLP093
2018-10-17 20:00:00 Wind: East (90°) 1.54 m/s - Visibility: 48280.2 m - Temperature: 8 °C - Dew point: 2 °C - Humidity: 66.2% - Pressure: 1007.45 hPa
Statistics

The table below shows the detailed information of all flights to/from Fort Nelson, Fort Nelson Airport (CYYE).